الصفحة الرئيسية
METAR-TAF:

METAR-TAF

مطار :

Esperance, أستراليا

دائرة عرض: 33-41-04S, خط طول: 121-49-22E, ارتفاع: 143 متر

مراقبة الطقس الحالي

تاريخ ووقت الإصدار 22 دقيقة قبل الساعة 23:00UTC
ريح 9 عقدة من الجنوب/الجنوب الغربي
درجة الحرارة 18°درجة مئوية
الرطوبة 100%
ضغط 1013 hPa
الرؤية 10 كم أو أكثر
ملبد بالغيوم على ارتفاع 300 قدم

METAR: YESP 052300Z AUTO 21009KT 9999 // OVC003 18/18 Q1013

زمن: 07:22 (23:22 UTC)


TAF: مفقودة

أرصاد الطقس والتوقعات من أكثر من 4000 مطار (تقارير الطقس للمطار METAR والتنبؤ بالطقس بالمطارTAF).

المحطات المتاحة هي النقط الصفراء والحمراء على الخريطة.

حرك المؤشر فوق النقطة لمعرفة اسم المحطة.

ثم انقر لمعرفة أرصاد وتوقعات الطقس.

لتغيير الخارطة: اضغط على الأزرار الخضراء مع رمز الصليب الأسود للتكبير. على الزر الأخضر مع شرطة للتصغير، أو على الأسهم الخضراء للخرائط المجاورة.


METAR-TAF: